Rogue Valley International Medford Airport Medford US
ICAO: KMFR
IATA: MFR
Category: Medium
Scheduled Services: Yes

Elevation: 1335 ft
TransAlt. 18000 ft.

Airport Communications:
CASCADE APP/DEP:124.3
ATIS:127.25
CTAF:119.4
GND:121.8
MC MINNVILLE RDO:122.65
MEDFORD TWR:119.4
UNICOM:122.95

KMFR Zoom In..

If you have problems with the map follow the link
https://www.worldairports.se/pages/airport.php?
ICAO=KMFR

Runways:

(A) RW 14 length 8800 ft width 150 ft
ILS 110.30 / hdg 142

(B) RW 32 length 8800 ft width 150 ft
---- / hdg 322

Location; KMFR
Day. 18 / Time. 01.53 Zulu
* Altimeter: 30.22
* Temperature: 03° c. 37.4°f.
* Wind from: 010° Speed 06 kn.
Dewpoint: 02° c.
Visibility: 10 Statute Miles.
Clouds: Broken 9500 ft.
Clouds: Overcast 11000 ft.

KMFR 180153Z 01006KT 10SM BKN095 OVC110 03/02 A3022 RMK AO2 SLP241 T00330017


Wind From 010°
Speed 06 kn.

 
 
jpsmedia worldairports.se 2020   terms of use